sensor_id;sensor_type;location;lat;lon;timestamp;P1;durP1;ratioP1;P2;durP2;ratioP2
25359;SDS011;13311;51.386;0.016;2023-08-07T00:01:47;2.65;;;1.60;;
25359;SDS011;13311;51.386;0.016;2023-08-07T00:06:48;2.42;;;1.48;;
25359;SDS011;13311;51.386;0.016;2023-08-07T00:11:48;3.20;;;1.92;;
25359;SDS011;13311;51.386;0.016;2023-08-07T00:16:49;2.88;;;1.70;;
25359;SDS011;13311;51.386;0.016;2023-08-07T00:21:49;4.57;;;1.40;;
25359;SDS011;13311;51.386;0.016;2023-08-07T00:26:50;1.95;;;1.30;;
25359;SDS011;13311;51.386;0.016;2023-08-07T00:31:51;2.10;;;1.67;;
25359;SDS011;13311;51.386;0.016;2023-08-07T00:36:52;3.38;;;1.75;;
25359;SDS011;13311;51.386;0.016;2023-08-07T00:41:52;3.40;;;1.70;;
25359;SDS011;13311;51.386;0.016;2023-08-07T00:46:53;3.10;;;1.77;;
25359;SDS011;13311;51.386;0.016;2023-08-07T00:51:54;2.28;;;1.88;;
25359;SDS011;13311;51.386;0.016;2023-08-07T00:56:56;3.10;;;1.98;;
25359;SDS011;13311;51.386;0.016;2023-08-07T01:02:05;4.47;;;1.80;;
25359;SDS011;13311;51.386;0.016;2023-08-07T01:07:06;2.20;;;1.60;;
25359;SDS011;13311;51.386;0.016;2023-08-07T01:17:11;1.35;;;1.20;;
25359;SDS011;13311;51.386;0.016;2023-08-07T01:22:16;2.60;;;1.40;;
25359;SDS011;13311;51.386;0.016;2023-08-07T01:32:21;2.25;;;1.27;;
25359;SDS011;13311;51.386;0.016;2023-08-07T01:37:49;2.53;;;1.55;;
25359;SDS011;13311;51.386;0.016;2023-08-07T01:42:51;1.40;;;1.25;;
25359;SDS011;13311;51.386;0.016;2023-08-07T01:47:52;2.70;;;1.73;;
25359;SDS011;13311;51.386;0.016;2023-08-07T01:52:54;2.65;;;1.83;;
25359;SDS011;13311;51.386;0.016;2023-08-07T01:57:54;2.70;;;1.38;;
25359;SDS011;13311;51.386;0.016;2023-08-07T02:02:55;1.85;;;1.20;;
25359;SDS011;13311;51.386;0.016;2023-08-07T02:07:56;6.43;;;1.85;;
25359;SDS011;13311;51.386;0.016;2023-08-07T02:12:57;4.63;;;1.42;;
25359;SDS011;13311;51.386;0.016;2023-08-07T02:17:59;4.28;;;1.52;;
25359;SDS011;13311;51.386;0.016;2023-08-07T02:22:59;1.58;;;1.17;;
25359;SDS011;13311;51.386;0.016;2023-08-07T02:28:00;3.13;;;1.48;;
25359;SDS011;13311;51.386;0.016;2023-08-07T02:33:01;2.92;;;1.23;;
25359;SDS011;13311;51.386;0.016;2023-08-07T02:38:01;3.97;;;1.85;;
25359;SDS011;13311;51.386;0.016;2023-08-07T02:43:02;1.77;;;1.33;;
25359;SDS011;13311;51.386;0.016;2023-08-07T02:48:03;2.65;;;1.25;;
25359;SDS011;13311;51.386;0.016;2023-08-07T02:53:04;4.45;;;1.63;;
25359;SDS011;13311;51.386;0.016;2023-08-07T02:58:05;1.65;;;1.20;;
25359;SDS011;13311;51.386;0.016;2023-08-07T03:03:05;1.42;;;1.33;;
25359;SDS011;13311;51.386;0.016;2023-08-07T03:08:06;1.95;;;1.27;;
25359;SDS011;13311;51.386;0.016;2023-08-07T03:13:07;2.38;;;1.45;;
25359;SDS011;13311;51.386;0.016;2023-08-07T03:18:07;1.67;;;1.38;;
25359;SDS011;13311;51.386;0.016;2023-08-07T03:23:08;3.05;;;1.27;;
25359;SDS011;13311;51.386;0.016;2023-08-07T03:28:10;1.98;;;1.75;;
25359;SDS011;13311;51.386;0.016;2023-08-07T03:33:10;2.40;;;1.55;;
25359;SDS011;13311;51.386;0.016;2023-08-07T03:38:11;3.10;;;1.48;;
25359;SDS011;13311;51.386;0.016;2023-08-07T03:43:12;1.48;;;1.33;;
25359;SDS011;13311;51.386;0.016;2023-08-07T03:48:13;1.92;;;1.27;;
25359;SDS011;13311;51.386;0.016;2023-08-07T03:53:13;2.38;;;1.38;;
25359;SDS011;13311;51.386;0.016;2023-08-07T03:58:14;2.70;;;1.80;;
25359;SDS011;13311;51.386;0.016;2023-08-07T04:03:15;2.15;;;1.30;;
25359;SDS011;13311;51.386;0.016;2023-08-07T04:08:15;3.75;;;1.52;;
25359;SDS011;13311;51.386;0.016;2023-08-07T04:13:16;7.20;;;2.00;;
25359;SDS011;13311;51.386;0.016;2023-08-07T04:18:17;3.10;;;1.58;;
25359;SDS011;13311;51.386;0.016;2023-08-07T04:23:17;4.75;;;1.70;;
25359;SDS011;13311;51.386;0.016;2023-08-07T04:28:19;1.98;;;1.25;;
25359;SDS011;13311;51.386;0.016;2023-08-07T04:33:20;3.78;;;1.40;;
25359;SDS011;13311;51.386;0.016;2023-08-07T04:38:21;3.35;;;1.65;;
25359;SDS011;13311;51.386;0.016;2023-08-07T04:43:22;5.20;;;1.80;;
25359;SDS011;13311;51.386;0.016;2023-08-07T04:48:23;4.75;;;1.92;;
25359;SDS011;13311;51.386;0.016;2023-08-07T04:53:25;2.20;;;1.60;;
25359;SDS011;13311;51.386;0.016;2023-08-07T04:58:26;2.95;;;1.63;;
25359;SDS011;13311;51.386;0.016;2023-08-07T05:03:26;3.45;;;1.52;;
25359;SDS011;13311;51.386;0.016;2023-08-07T05:08:27;3.00;;;1.70;;
25359;SDS011;13311;51.386;0.016;2023-08-07T05:13:28;3.30;;;1.38;;
25359;SDS011;13311;51.386;0.016;2023-08-07T05:18:29;4.00;;;1.48;;
25359;SDS011;13311;51.386;0.016;2023-08-07T05:23:30;3.65;;;1.65;;
25359;SDS011;13311;51.386;0.016;2023-08-07T05:28:30;2.20;;;1.52;;
25359;SDS011;13311;51.386;0.016;2023-08-07T05:33:31;3.22;;;2.08;;
25359;SDS011;13311;51.386;0.016;2023-08-07T05:38:32;3.75;;;1.45;;
25359;SDS011;13311;51.386;0.016;2023-08-07T05:43:32;2.83;;;2.15;;
25359;SDS011;13311;51.386;0.016;2023-08-07T05:48:33;3.50;;;1.92;;
25359;SDS011;13311;51.386;0.016;2023-08-07T05:53:34;5.80;;;2.10;;
25359;SDS011;13311;51.386;0.016;2023-08-07T05:58:36;2.95;;;1.60;;
25359;SDS011;13311;51.386;0.016;2023-08-07T06:03:37;4.43;;;1.40;;
25359;SDS011;13311;51.386;0.016;2023-08-07T06:08:37;2.92;;;1.90;;
25359;SDS011;13311;51.386;0.016;2023-08-07T06:13:39;4.97;;;1.65;;
25359;SDS011;13311;51.386;0.016;2023-08-07T06:18:40;3.50;;;1.55;;
25359;SDS011;13311;51.386;0.016;2023-08-07T06:23:41;3.90;;;1.40;;
25359;SDS011;13311;51.386;0.016;2023-08-07T06:28:42;3.08;;;1.75;;
25359;SDS011;13311;51.386;0.016;2023-08-07T06:33:43;2.85;;;1.38;;
25359;SDS011;13311;51.386;0.016;2023-08-07T06:38:44;2.90;;;1.67;;
25359;SDS011;13311;51.386;0.016;2023-08-07T06:43:44;2.05;;;1.20;;
25359;SDS011;13311;51.386;0.016;2023-08-07T06:48:45;6.03;;;1.83;;
25359;SDS011;13311;51.386;0.016;2023-08-07T06:53:46;1.88;;;1.30;;
25359;SDS011;13311;51.386;0.016;2023-08-07T06:58:46;1.08;;;1.02;;
25359;SDS011;13311;51.386;0.016;2023-08-07T07:03:47;3.28;;;1.60;;
25359;SDS011;13311;51.386;0.016;2023-08-07T07:08:52;4.53;;;1.65;;
25359;SDS011;13311;51.386;0.016;2023-08-07T07:13:55;3.53;;;1.60;;
25359;SDS011;13311;51.386;0.016;2023-08-07T07:18:56;1.70;;;1.13;;
25359;SDS011;13311;51.386;0.016;2023-08-07T07:23:58;1.70;;;1.30;;
25359;SDS011;13311;51.386;0.016;2023-08-07T07:28:58;3.08;;;1.30;;
25359;SDS011;13311;51.386;0.016;2023-08-07T07:33:59;2.13;;;1.50;;
25359;SDS011;13311;51.386;0.016;2023-08-07T07:39:00;3.58;;;1.83;;
25359;SDS011;13311;51.386;0.016;2023-08-07T07:44:00;2.05;;;1.52;;
25359;SDS011;13311;51.386;0.016;2023-08-07T07:49:02;4.82;;;1.65;;
25359;SDS011;13311;51.386;0.016;2023-08-07T07:54:04;1.88;;;1.13;;
25359;SDS011;13311;51.386;0.016;2023-08-07T07:59:05;2.05;;;0.95;;
25359;SDS011;13311;51.386;0.016;2023-08-07T08:04:06;2.33;;;1.17;;
25359;SDS011;13311;51.386;0.016;2023-08-07T08:09:07;3.13;;;1.10;;
25359;SDS011;13311;51.386;0.016;2023-08-07T08:14:09;6.57;;;1.00;;
25359;SDS011;13311;51.386;0.016;2023-08-07T08:19:10;1.48;;;1.10;;
25359;SDS011;13311;51.386;0.016;2023-08-07T08:24:11;1.63;;;1.02;;
25359;SDS011;13311;51.386;0.016;2023-08-07T08:29:14;1.25;;;0.70;;
25359;SDS011;13311;51.386;0.016;2023-08-07T08:34:15;1.90;;;1.23;;
25359;SDS011;13311;51.386;0.016;2023-08-07T08:39:15;2.13;;;1.05;;
25359;SDS011;13311;51.386;0.016;2023-08-07T08:44:17;2.78;;;0.90;;
25359;SDS011;13311;51.386;0.016;2023-08-07T08:49:21;3.55;;;1.23;;
25359;SDS011;13311;51.386;0.016;2023-08-07T08:54:30;1.92;;;0.90;;
25359;SDS011;13311;51.386;0.016;2023-08-07T08:59:32;2.75;;;1.00;;
25359;SDS011;13311;51.386;0.016;2023-08-07T09:04:34;2.17;;;0.95;;
25359;SDS011;13311;51.386;0.016;2023-08-07T09:09:34;2.53;;;1.00;;
25359;SDS011;13311;51.386;0.016;2023-08-07T09:14:35;2.00;;;0.75;;
25359;SDS011;13311;51.386;0.016;2023-08-07T09:19:39;3.03;;;1.00;;
25359;SDS011;13311;51.386;0.016;2023-08-07T09:24:40;2.97;;;1.30;;
25359;SDS011;13311;51.386;0.016;2023-08-07T09:29:40;0.95;;;0.63;;
25359;SDS011;13311;51.386;0.016;2023-08-07T09:34:42;1.98;;;0.80;;
25359;SDS011;13311;51.386;0.016;2023-08-07T09:39:43;0.95;;;0.85;;
25359;SDS011;13311;51.386;0.016;2023-08-07T09:44:43;1.63;;;0.73;;
25359;SDS011;13311;51.386;0.016;2023-08-07T09:49:48;2.13;;;1.10;;
25359;SDS011;13311;51.386;0.016;2023-08-07T09:54:56;0.90;;;0.75;;
25359;SDS011;13311;51.386;0.016;2023-08-07T09:59:57;0.95;;;0.57;;
25359;SDS011;13311;51.386;0.016;2023-08-07T10:05:00;3.08;;;0.95;;
25359;SDS011;13311;51.386;0.016;2023-08-07T10:10:04;1.38;;;0.77;;
25359;SDS011;13311;51.386;0.016;2023-08-07T10:15:07;1.00;;;0.57;;
25359;SDS011;13311;51.386;0.016;2023-08-07T10:20:09;1.15;;;0.68;;
25359;SDS011;13311;51.386;0.016;2023-08-07T10:25:11;1.00;;;0.80;;
25359;SDS011;13311;51.386;0.016;2023-08-07T10:30:11;1.75;;;0.75;;
25359;SDS011;13311;51.386;0.016;2023-08-07T10:41:12;1.13;;;0.70;;
25359;SDS011;13311;51.386;0.016;2023-08-07T10:46:15;1.67;;;0.75;;
25359;SDS011;13311;51.386;0.016;2023-08-07T10:51:27;0.82;;;0.55;;
25359;SDS011;13311;51.386;0.016;2023-08-07T10:56:34;0.95;;;0.80;;
25359;SDS011;13311;51.386;0.016;2023-08-07T11:06:43;1.23;;;0.70;;
25359;SDS011;13311;51.386;0.016;2023-08-07T11:11:48;2.40;;;0.80;;
25359;SDS011;13311;51.386;0.016;2023-08-07T11:16:48;1.63;;;1.13;;
25359;SDS011;13311;51.386;0.016;2023-08-07T11:21:49;4.93;;;1.50;;
25359;SDS011;13311;51.386;0.016;2023-08-07T11:26:50;3.08;;;1.25;;
25359;SDS011;13311;51.386;0.016;2023-08-07T11:31:52;1.02;;;0.90;;
25359;SDS011;13311;51.386;0.016;2023-08-07T11:36:53;2.35;;;0.90;;
25359;SDS011;13311;51.386;0.016;2023-08-07T11:41:58;1.33;;;0.90;;
25359;SDS011;13311;51.386;0.016;2023-08-07T11:47:00;2.65;;;1.15;;
25359;SDS011;13311;51.386;0.016;2023-08-07T11:52:01;6.28;;;1.42;;
25359;SDS011;13311;51.386;0.016;2023-08-07T11:57:02;5.50;;;1.38;;
25359;SDS011;13311;51.386;0.016;2023-08-07T12:02:08;1.67;;;0.88;;
25359;SDS011;13311;51.386;0.016;2023-08-07T12:07:16;2.00;;;1.17;;
25359;SDS011;13311;51.386;0.016;2023-08-07T12:12:19;3.03;;;1.10;;
25359;SDS011;13311;51.386;0.016;2023-08-07T12:17:21;2.15;;;0.90;;
25359;SDS011;13311;51.386;0.016;2023-08-07T12:22:22;4.20;;;1.13;;
25359;SDS011;13311;51.386;0.016;2023-08-07T12:27:22;1.58;;;1.10;;
25359;SDS011;13311;51.386;0.016;2023-08-07T12:32:23;1.25;;;0.80;;
25359;SDS011;13311;51.386;0.016;2023-08-07T12:37:24;2.53;;;1.00;;
25359;SDS011;13311;51.386;0.016;2023-08-07T12:42:24;2.85;;;1.30;;
25359;SDS011;13311;51.386;0.016;2023-08-07T12:47:25;2.20;;;1.40;;
25359;SDS011;13311;51.386;0.016;2023-08-07T12:52:26;2.42;;;1.35;;
25359;SDS011;13311;51.386;0.016;2023-08-07T12:57:26;2.03;;;1.20;;
25359;SDS011;13311;51.386;0.016;2023-08-07T13:02:27;1.90;;;1.10;;
25359;SDS011;13311;51.386;0.016;2023-08-07T13:07:28;4.00;;;1.13;;
25359;SDS011;13311;51.386;0.016;2023-08-07T13:12:28;1.48;;;1.00;;
25359;SDS011;13311;51.386;0.016;2023-08-07T13:17:29;1.95;;;1.20;;
25359;SDS011;13311;51.386;0.016;2023-08-07T13:22:30;2.67;;;1.35;;
25359;SDS011;13311;51.386;0.016;2023-08-07T13:27:31;1.38;;;0.95;;
25359;SDS011;13311;51.386;0.016;2023-08-07T13:32:32;2.72;;;0.93;;
25359;SDS011;13311;51.386;0.016;2023-08-07T13:37:33;2.70;;;0.98;;
25359;SDS011;13311;51.386;0.016;2023-08-07T13:42:34;3.90;;;1.40;;
25359;SDS011;13311;51.386;0.016;2023-08-07T13:47:35;2.00;;;1.23;;
25359;SDS011;13311;51.386;0.016;2023-08-07T13:52:37;2.70;;;1.30;;
25359;SDS011;13311;51.386;0.016;2023-08-07T13:57:37;2.08;;;1.15;;
25359;SDS011;13311;51.386;0.016;2023-08-07T14:02:38;1.50;;;0.98;;
25359;SDS011;13311;51.386;0.016;2023-08-07T14:07:39;1.20;;;1.05;;
25359;SDS011;13311;51.386;0.016;2023-08-07T14:12:40;2.47;;;1.27;;
25359;SDS011;13311;51.386;0.016;2023-08-07T14:17:40;1.95;;;1.00;;
25359;SDS011;13311;51.386;0.016;2023-08-07T14:22:41;1.23;;;0.90;;
25359;SDS011;13311;51.386;0.016;2023-08-07T14:27:42;1.73;;;1.10;;
25359;SDS011;13311;51.386;0.016;2023-08-07T14:32:42;8.13;;;1.45;;
25359;SDS011;13311;51.386;0.016;2023-08-07T14:37:43;2.92;;;1.30;;
25359;SDS011;13311;51.386;0.016;2023-08-07T14:42:46;1.92;;;1.35;;
25359;SDS011;13311;51.386;0.016;2023-08-07T14:47:47;10.32;;;1.67;;
25359;SDS011;13311;51.386;0.016;2023-08-07T14:52:48;2.72;;;1.30;;
25359;SDS011;13311;51.386;0.016;2023-08-07T14:57:48;1.90;;;1.20;;
25359;SDS011;13311;51.386;0.016;2023-08-07T15:02:49;3.65;;;1.13;;
25359;SDS011;13311;51.386;0.016;2023-08-07T15:07:50;2.45;;;1.40;;
25359;SDS011;13311;51.386;0.016;2023-08-07T15:12:50;3.38;;;1.30;;
25359;SDS011;13311;51.386;0.016;2023-08-07T15:17:51;1.13;;;1.00;;
25359;SDS011;13311;51.386;0.016;2023-08-07T15:22:52;2.47;;;1.52;;
25359;SDS011;13311;51.386;0.016;2023-08-07T15:27:53;1.73;;;1.23;;
25359;SDS011;13311;51.386;0.016;2023-08-07T15:32:55;3.13;;;1.27;;
25359;SDS011;13311;51.386;0.016;2023-08-07T15:37:56;9.48;;;1.73;;
25359;SDS011;13311;51.386;0.016;2023-08-07T15:43:00;6.10;;;1.50;;
25359;SDS011;13311;51.386;0.016;2023-08-07T15:48:00;3.08;;;0.95;;
25359;SDS011;13311;51.386;0.016;2023-08-07T15:53:01;3.97;;;1.40;;
25359;SDS011;13311;51.386;0.016;2023-08-07T15:58:02;2.33;;;0.90;;
25359;SDS011;13311;51.386;0.016;2023-08-07T16:03:05;3.55;;;1.42;;
25359;SDS011;13311;51.386;0.016;2023-08-07T16:08:06;2.42;;;1.45;;
25359;SDS011;13311;51.386;0.016;2023-08-07T16:13:07;4.10;;;1.42;;
25359;SDS011;13311;51.386;0.016;2023-08-07T16:18:08;2.42;;;1.15;;
25359;SDS011;13311;51.386;0.016;2023-08-07T16:23:08;4.28;;;1.23;;
25359;SDS011;13311;51.386;0.016;2023-08-07T16:28:09;1.27;;;1.10;;
25359;SDS011;13311;51.386;0.016;2023-08-07T16:33:10;3.55;;;1.08;;
25359;SDS011;13311;51.386;0.016;2023-08-07T16:38:11;2.22;;;1.20;;
25359;SDS011;13311;51.386;0.016;2023-08-07T16:43:11;2.15;;;1.10;;
25359;SDS011;13311;51.386;0.016;2023-08-07T16:48:12;3.38;;;1.33;;
25359;SDS011;13311;51.386;0.016;2023-08-07T16:53:13;2.33;;;1.17;;
25359;SDS011;13311;51.386;0.016;2023-08-07T16:58:15;2.80;;;1.35;;
25359;SDS011;13311;51.386;0.016;2023-08-07T17:03:16;3.15;;;1.30;;
25359;SDS011;13311;51.386;0.016;2023-08-07T17:08:17;2.15;;;1.58;;
25359;SDS011;13311;51.386;0.016;2023-08-07T17:13:18;4.93;;;1.17;;
25359;SDS011;13311;51.386;0.016;2023-08-07T17:18:18;2.42;;;1.40;;
25359;SDS011;13311;51.386;0.016;2023-08-07T17:23:19;2.72;;;1.42;;
25359;SDS011;13311;51.386;0.016;2023-08-07T17:28:20;3.35;;;1.50;;
25359;SDS011;13311;51.386;0.016;2023-08-07T17:33:21;3.95;;;1.95;;
25359;SDS011;13311;51.386;0.016;2023-08-07T17:38:22;1.92;;;1.30;;
25359;SDS011;13311;51.386;0.016;2023-08-07T17:43:23;2.60;;;1.73;;
25359;SDS011;13311;51.386;0.016;2023-08-07T17:48:24;2.50;;;1.05;;
25359;SDS011;13311;51.386;0.016;2023-08-07T17:53:25;3.72;;;1.40;;
25359;SDS011;13311;51.386;0.016;2023-08-07T17:58:26;2.90;;;1.42;;
25359;SDS011;13311;51.386;0.016;2023-08-07T18:03:26;5.55;;;1.95;;
25359;SDS011;13311;51.386;0.016;2023-08-07T18:08:27;3.95;;;2.10;;
25359;SDS011;13311;51.386;0.016;2023-08-07T18:13:29;3.75;;;1.83;;
25359;SDS011;13311;51.386;0.016;2023-08-07T18:18:30;2.90;;;1.40;;
25359;SDS011;13311;51.386;0.016;2023-08-07T18:23:30;4.68;;;1.27;;
25359;SDS011;13311;51.386;0.016;2023-08-07T18:28:32;3.42;;;1.65;;
25359;SDS011;13311;51.386;0.016;2023-08-07T18:33:32;4.57;;;1.52;;
25359;SDS011;13311;51.386;0.016;2023-08-07T18:38:33;3.80;;;1.65;;
25359;SDS011;13311;51.386;0.016;2023-08-07T18:43:34;2.50;;;1.08;;
25359;SDS011;13311;51.386;0.016;2023-08-07T18:48:35;4.88;;;1.60;;
25359;SDS011;13311;51.386;0.016;2023-08-07T18:53:35;3.22;;;1.35;;
25359;SDS011;13311;51.386;0.016;2023-08-07T18:58:38;3.50;;;1.30;;
25359;SDS011;13311;51.386;0.016;2023-08-07T19:03:39;2.38;;;1.30;;
25359;SDS011;13311;51.386;0.016;2023-08-07T19:08:39;4.53;;;1.73;;
25359;SDS011;13311;51.386;0.016;2023-08-07T19:13:40;2.90;;;1.02;;
25359;SDS011;13311;51.386;0.016;2023-08-07T19:18:41;2.22;;;1.17;;
25359;SDS011;13311;51.386;0.016;2023-08-07T19:23:41;3.10;;;1.60;;
25359;SDS011;13311;51.386;0.016;2023-08-07T19:28:42;1.60;;;1.00;;
25359;SDS011;13311;51.386;0.016;2023-08-07T19:33:43;2.55;;;1.10;;
25359;SDS011;13311;51.386;0.016;2023-08-07T19:38:43;2.50;;;1.40;;
25359;SDS011;13311;51.386;0.016;2023-08-07T19:43:44;2.17;;;1.42;;
25359;SDS011;13311;51.386;0.016;2023-08-07T19:48:47;4.30;;;1.45;;
25359;SDS011;13311;51.386;0.016;2023-08-07T19:53:48;2.10;;;1.25;;
25359;SDS011;13311;51.386;0.016;2023-08-07T19:58:49;3.38;;;1.25;;
25359;SDS011;13311;51.386;0.016;2023-08-07T20:03:49;2.58;;;1.33;;
25359;SDS011;13311;51.386;0.016;2023-08-07T20:08:50;2.60;;;1.20;;
25359;SDS011;13311;51.386;0.016;2023-08-07T20:13:51;9.68;;;1.52;;
25359;SDS011;13311;51.386;0.016;2023-08-07T20:18:51;3.03;;;1.30;;
25359;SDS011;13311;51.386;0.016;2023-08-07T20:23:52;2.95;;;1.30;;
25359;SDS011;13311;51.386;0.016;2023-08-07T20:28:53;3.03;;;1.38;;
25359;SDS011;13311;51.386;0.016;2023-08-07T20:33:55;3.95;;;1.55;;
25359;SDS011;13311;51.386;0.016;2023-08-07T20:38:58;3.95;;;1.50;;
25359;SDS011;13311;51.386;0.016;2023-08-07T20:43:59;2.13;;;1.60;;
25359;SDS011;13311;51.386;0.016;2023-08-07T20:48:59;3.70;;;1.45;;
25359;SDS011;13311;51.386;0.016;2023-08-07T20:54:00;4.80;;;1.60;;
25359;SDS011;13311;51.386;0.016;2023-08-07T20:59:01;2.60;;;1.40;;
25359;SDS011;13311;51.386;0.016;2023-08-07T21:04:02;3.70;;;1.98;;
25359;SDS011;13311;51.386;0.016;2023-08-07T21:09:02;4.38;;;1.75;;
25359;SDS011;13311;51.386;0.016;2023-08-07T21:14:03;6.13;;;1.92;;
25359;SDS011;13311;51.386;0.016;2023-08-07T21:19:05;3.25;;;1.60;;
25359;SDS011;13311;51.386;0.016;2023-08-07T21:24:08;3.95;;;2.25;;
25359;SDS011;13311;51.386;0.016;2023-08-07T21:29:11;4.85;;;1.92;;
25359;SDS011;13311;51.386;0.016;2023-08-07T21:34:12;5.22;;;2.17;;
25359;SDS011;13311;51.386;0.016;2023-08-07T21:39:12;5.10;;;1.85;;
25359;SDS011;13311;51.386;0.016;2023-08-07T21:44:13;5.45;;;1.83;;
25359;SDS011;13311;51.386;0.016;2023-08-07T21:49:14;3.55;;;1.95;;
25359;SDS011;13311;51.386;0.016;2023-08-07T21:54:14;3.30;;;1.90;;
25359;SDS011;13311;51.386;0.016;2023-08-07T21:59:15;5.78;;;1.90;;
25359;SDS011;13311;51.386;0.016;2023-08-07T22:04:16;4.07;;;1.73;;
25359;SDS011;13311;51.386;0.016;2023-08-07T22:09:16;2.83;;;1.63;;
25359;SDS011;13311;51.386;0.016;2023-08-07T22:14:17;4.05;;;1.85;;
25359;SDS011;13311;51.386;0.016;2023-08-07T22:19:18;3.45;;;1.88;;
25359;SDS011;13311;51.386;0.016;2023-08-07T22:24:19;3.38;;;1.70;;
25359;SDS011;13311;51.386;0.016;2023-08-07T22:29:20;4.20;;;2.00;;
25359;SDS011;13311;51.386;0.016;2023-08-07T22:34:21;4.03;;;2.03;;
25359;SDS011;13311;51.386;0.016;2023-08-07T22:39:21;4.32;;;2.13;;
25359;SDS011;13311;51.386;0.016;2023-08-07T22:44:22;7.65;;;2.40;;
25359;SDS011;13311;51.386;0.016;2023-08-07T22:49:23;3.80;;;2.13;;
25359;SDS011;13311;51.386;0.016;2023-08-07T22:54:24;4.28;;;1.88;;
25359;SDS011;13311;51.386;0.016;2023-08-07T22:59:25;5.32;;;1.85;;
25359;SDS011;13311;51.386;0.016;2023-08-07T23:04:25;2.83;;;1.30;;
25359;SDS011;13311;51.386;0.016;2023-08-07T23:09:26;3.58;;;1.50;;
25359;SDS011;13311;51.386;0.016;2023-08-07T23:14:27;2.67;;;1.55;;
25359;SDS011;13311;51.386;0.016;2023-08-07T23:19:28;3.20;;;1.33;;
25359;SDS011;13311;51.386;0.016;2023-08-07T23:24:29;2.80;;;1.55;;
25359;SDS011;13311;51.386;0.016;2023-08-07T23:29:30;5.13;;;1.73;;
25359;SDS011;13311;51.386;0.016;2023-08-07T23:34:30;5.70;;;1.52;;
25359;SDS011;13311;51.386;0.016;2023-08-07T23:39:31;4.75;;;1.45;;
25359;SDS011;13311;51.386;0.016;2023-08-07T23:44:32;2.85;;;1.48;;
25359;SDS011;13311;51.386;0.016;2023-08-07T23:49:33;3.20;;;1.67;;
25359;SDS011;13311;51.386;0.016;2023-08-07T23:54:34;4.63;;;1.35;;
25359;SDS011;13311;51.386;0.016;2023-08-07T23:59:34;3.67;;;1.48;;
